sensor_id;sensor_type;location;lat;lon;timestamp;P1;durP1;ratioP1;P2;durP2;ratioP2
1086;SDS011;532;49.436;11.100;2022-08-21T00:02:14;104.22;;;78.45;;
1086;SDS011;532;49.436;11.100;2022-08-21T00:04:46;69.80;;;60.53;;
1086;SDS011;532;49.436;11.100;2022-08-21T00:07:23;7.55;;;3.78;;
1086;SDS011;532;49.436;11.100;2022-08-21T00:09:52;33.20;;;30.42;;
1086;SDS011;532;49.436;11.100;2022-08-21T00:12:20;7.23;;;3.47;;
1086;SDS011;532;49.436;11.100;2022-08-21T00:14:49;48.58;;;44.50;;
1086;SDS011;532;49.436;11.100;2022-08-21T00:17:24;79.28;;;67.88;;
1086;SDS011;532;49.436;11.100;2022-08-21T00:19:52;24.92;;;21.90;;
1086;SDS011;532;49.436;11.100;2022-08-21T00:22:23;170.73;;;101.25;;
1086;SDS011;532;49.436;11.100;2022-08-21T00:24:51;204.90;;;111.28;;
1086;SDS011;532;49.436;11.100;2022-08-21T00:27:22;236.20;;;119.88;;
1086;SDS011;532;49.436;11.100;2022-08-21T00:29:50;60.00;;;51.53;;
1086;SDS011;532;49.436;11.100;2022-08-21T00:32:24;43.20;;;39.83;;
1086;SDS011;532;49.436;11.100;2022-08-21T00:34:55;27.45;;;25.58;;
1086;SDS011;532;49.436;11.100;2022-08-21T00:37:26;8.93;;;5.93;;
1086;SDS011;532;49.436;11.100;2022-08-21T00:40:02;7.95;;;6.75;;
1086;SDS011;532;49.436;11.100;2022-08-21T00:42:31;7.45;;;3.22;;
1086;SDS011;532;49.436;11.100;2022-08-21T00:44:59;50.03;;;45.75;;
1086;SDS011;532;49.436;11.100;2022-08-21T00:47:29;142.50;;;92.32;;
1086;SDS011;532;49.436;11.100;2022-08-21T00:49:57;7.15;;;3.50;;
1086;SDS011;532;49.436;11.100;2022-08-21T00:52:26;109.30;;;80.07;;
1086;SDS011;532;49.436;11.100;2022-08-21T00:54:56;112.43;;;80.97;;
1086;SDS011;532;49.436;11.100;2022-08-21T00:57:27;7.30;;;3.77;;
1086;SDS011;532;49.436;11.100;2022-08-21T01:00:00;86.63;;;63.30;;
1086;SDS011;532;49.436;11.100;2022-08-21T01:02:30;5.25;;;2.80;;
1086;SDS011;532;49.436;11.100;2022-08-21T01:04:58;7.93;;;5.28;;
1086;SDS011;532;49.436;11.100;2022-08-21T01:07:26;74.68;;;65.22;;
1086;SDS011;532;49.436;11.100;2022-08-21T01:09:54;78.85;;;67.32;;
1086;SDS011;532;49.436;11.100;2022-08-21T01:12:25;5.43;;;2.90;;
1086;SDS011;532;49.436;11.100;2022-08-21T01:14:56;56.58;;;50.85;;
1086;SDS011;532;49.436;11.100;2022-08-21T01:17:25;23.23;;;20.83;;
1086;SDS011;532;49.436;11.100;2022-08-21T01:19:58;4.97;;;2.50;;
1086;SDS011;532;49.436;11.100;2022-08-21T01:22:28;87.40;;;71.20;;
1086;SDS011;532;49.436;11.100;2022-08-21T01:24:56;5.03;;;2.70;;
1086;SDS011;532;49.436;11.100;2022-08-21T01:27:24;94.35;;;74.20;;
1086;SDS011;532;49.436;11.100;2022-08-21T01:29:53;5.95;;;2.83;;
1086;SDS011;532;49.436;11.100;2022-08-21T01:32:24;60.97;;;54.27;;
1086;SDS011;532;49.436;11.100;2022-08-21T01:34:53;5.15;;;2.60;;
1086;SDS011;532;49.436;11.100;2022-08-21T01:37:21;82.15;;;66.55;;
1086;SDS011;532;49.436;11.100;2022-08-21T01:39:51;54.70;;;49.72;;
1086;SDS011;532;49.436;11.100;2022-08-21T01:42:20;234.38;;;117.97;;
1086;SDS011;532;49.436;11.100;2022-08-21T01:44:48;224.03;;;115.57;;
1086;SDS011;532;49.436;11.100;2022-08-21T01:47:20;86.00;;;70.15;;
1086;SDS011;532;49.436;11.100;2022-08-21T01:49:51;178.83;;;101.57;;
1086;SDS011;532;49.436;11.100;2022-08-21T01:52:21;115.57;;;81.82;;
1086;SDS011;532;49.436;11.100;2022-08-21T01:54:49;126.47;;;83.03;;
1086;SDS011;532;49.436;11.100;2022-08-21T01:57:22;53.67;;;47.00;;
1086;SDS011;532;49.436;11.100;2022-08-21T01:59:54;12.10;;;11.20;;
1086;SDS011;532;49.436;11.100;2022-08-21T02:02:22;6.13;;;3.80;;
1086;SDS011;532;49.436;11.100;2022-08-21T02:04:50;8.33;;;7.63;;
1086;SDS011;532;49.436;11.100;2022-08-21T02:07:25;93.47;;;73.45;;
1086;SDS011;532;49.436;11.100;2022-08-21T02:09:53;12.45;;;11.55;;
1086;SDS011;532;49.436;11.100;2022-08-21T02:12:23;12.52;;;11.63;;
1086;SDS011;532;49.436;11.100;2022-08-21T02:14:51;54.13;;;45.47;;
1086;SDS011;532;49.436;11.100;2022-08-21T02:17:21;45.17;;;40.33;;
1086;SDS011;532;49.436;11.100;2022-08-21T02:19:49;26.52;;;24.73;;
1086;SDS011;532;49.436;11.100;2022-08-21T02:22:18;105.60;;;77.83;;
1086;SDS011;532;49.436;11.100;2022-08-21T02:24:48;32.28;;;28.90;;
1086;SDS011;532;49.436;11.100;2022-08-21T02:27:21;29.55;;;24.15;;
1086;SDS011;532;49.436;11.100;2022-08-21T02:29:53;8.95;;;8.25;;
1086;SDS011;532;49.436;11.100;2022-08-21T02:32:22;88.10;;;70.47;;
1086;SDS011;532;49.436;11.100;2022-08-21T02:34:50;4.32;;;2.33;;
1086;SDS011;532;49.436;11.100;2022-08-21T02:37:19;76.88;;;61.00;;
1086;SDS011;532;49.436;11.100;2022-08-21T02:39:47;5.17;;;2.33;;
1086;SDS011;532;49.436;11.100;2022-08-21T02:42:16;5.22;;;4.60;;
1086;SDS011;532;49.436;11.100;2022-08-21T02:44:48;100.15;;;76.47;;
1086;SDS011;532;49.436;11.100;2022-08-21T02:47:16;76.85;;;63.05;;
1086;SDS011;532;49.436;11.100;2022-08-21T02:49:44;260.52;;;125.32;;
1086;SDS011;532;49.436;11.100;2022-08-21T02:52:12;97.35;;;74.35;;
1086;SDS011;532;49.436;11.100;2022-08-21T02:54:41;96.30;;;74.55;;
1086;SDS011;532;49.436;11.100;2022-08-21T02:57:09;7.43;;;4.87;;
1086;SDS011;532;49.436;11.100;2022-08-21T02:59:37;28.23;;;26.43;;
1086;SDS011;532;49.436;11.100;2022-08-21T03:02:07;82.05;;;68.65;;
1086;SDS011;532;49.436;11.100;2022-08-21T03:04:35;93.38;;;73.45;;
1086;SDS011;532;49.436;11.100;2022-08-21T03:07:11;51.87;;;46.43;;
1086;SDS011;532;49.436;11.100;2022-08-21T03:09:39;31.87;;;29.73;;
1086;SDS011;532;49.436;11.100;2022-08-21T03:12:21;139.10;;;90.15;;
1086;SDS011;532;49.436;11.100;2022-08-21T03:14:49;143.52;;;92.07;;
1086;SDS011;532;49.436;11.100;2022-08-21T03:17:19;57.33;;;51.92;;
1086;SDS011;532;49.436;11.100;2022-08-21T03:19:56;81.63;;;65.88;;
1086;SDS011;532;49.436;11.100;2022-08-21T03:22:25;46.53;;;42.70;;
1086;SDS011;532;49.436;11.100;2022-08-21T03:24:56;101.75;;;74.93;;
1086;SDS011;532;49.436;11.100;2022-08-21T03:27:25;59.47;;;52.70;;
1086;SDS011;532;49.436;11.100;2022-08-21T03:29:57;19.08;;;17.45;;
1086;SDS011;532;49.436;11.100;2022-08-21T03:32:27;97.60;;;74.82;;
1086;SDS011;532;49.436;11.100;2022-08-21T03:34:57;28.55;;;26.65;;
1086;SDS011;532;49.436;11.100;2022-08-21T03:37:26;12.23;;;11.32;;
1086;SDS011;532;49.436;11.100;2022-08-21T03:39:55;34.70;;;32.40;;
1086;SDS011;532;49.436;11.100;2022-08-21T03:42:23;28.33;;;26.37;;
1086;SDS011;532;49.436;11.100;2022-08-21T04:05:11;114.73;;;80.37;;
1086;SDS011;532;49.436;11.100;2022-08-21T04:07:41;53.25;;;48.50;;
1086;SDS011;532;49.436;11.100;2022-08-21T04:10:10;46.03;;;42.28;;
1086;SDS011;532;49.436;11.100;2022-08-21T04:12:46;52.92;;;48.15;;
1086;SDS011;532;49.436;11.100;2022-08-21T04:15:14;133.35;;;87.95;;
1086;SDS011;532;49.436;11.100;2022-08-21T04:17:42;65.82;;;58.83;;
1086;SDS011;532;49.436;11.100;2022-08-21T04:28:05;72.47;;;61.70;;
1086;SDS011;532;49.436;11.100;2022-08-21T05:23:33;210.80;;;111.72;;
1086;SDS011;532;49.436;11.100;2022-08-21T09:39:58;69.27;;;37.53;;
1086;SDS011;532;49.436;11.100;2022-08-21T09:45:06;11.23;;;7.00;;
1086;SDS011;532;49.436;11.100;2022-08-21T09:47:40;12.07;;;7.00;;
1086;SDS011;532;49.436;11.100;2022-08-21T09:50:11;10.75;;;6.32;;
1086;SDS011;532;49.436;11.100;2022-08-21T09:52:45;12.13;;;7.23;;
1086;SDS011;532;49.436;11.100;2022-08-21T09:55:30;11.70;;;6.90;;
1086;SDS011;532;49.436;11.100;2022-08-21T09:58:18;210.77;;;90.97;;
1086;SDS011;532;49.436;11.100;2022-08-21T10:00:56;401.63;;;162.40;;
1086;SDS011;532;49.436;11.100;2022-08-21T10:03:25;11.87;;;7.27;;
1086;SDS011;532;49.436;11.100;2022-08-21T10:05:56;10.45;;;6.20;;
1086;SDS011;532;49.436;11.100;2022-08-21T10:08:27;10.27;;;6.43;;
1086;SDS011;532;49.436;11.100;2022-08-21T10:11:01;11.40;;;7.10;;
1086;SDS011;532;49.436;11.100;2022-08-21T10:13:36;15.13;;;13.55;;
1086;SDS011;532;49.436;11.100;2022-08-21T10:16:15;133.23;;;92.10;;
1086;SDS011;532;49.436;11.100;2022-08-21T10:18:53;253.85;;;127.57;;
1086;SDS011;532;49.436;11.100;2022-08-21T10:21:36;11.65;;;6.75;;
1086;SDS011;532;49.436;11.100;2022-08-21T10:24:08;11.57;;;6.40;;
1086;SDS011;532;49.436;11.100;2022-08-21T10:27:06;37.08;;;33.35;;
1086;SDS011;532;49.436;11.100;2022-08-21T10:29:47;94.25;;;66.28;;
1086;SDS011;532;49.436;11.100;2022-08-21T10:32:32;498.35;;;195.40;;
1086;SDS011;532;49.436;11.100;2022-08-21T10:35:08;531.33;;;207.83;;
1086;SDS011;532;49.436;11.100;2022-08-21T10:37:42;22.00;;;12.90;;
1086;SDS011;532;49.436;11.100;2022-08-21T10:40:16;254.48;;;124.95;;
1086;SDS011;532;49.436;11.100;2022-08-21T10:42:52;402.45;;;162.45;;
1086;SDS011;532;49.436;11.100;2022-08-21T10:45:38;613.23;;;234.27;;
1086;SDS011;532;49.436;11.100;2022-08-21T10:48:13;718.45;;;267.77;;
1086;SDS011;532;49.436;11.100;2022-08-21T10:50:47;402.90;;;163.27;;
1086;SDS011;532;49.436;11.100;2022-08-21T10:53:30;684.25;;;263.60;;
1086;SDS011;532;49.436;11.100;2022-08-21T10:56:16;531.97;;;207.48;;
1086;SDS011;532;49.436;11.100;2022-08-21T10:58:53;486.77;;;190.93;;
1086;SDS011;532;49.436;11.100;2022-08-21T11:01:37;539.35;;;210.52;;
1086;SDS011;532;49.436;11.100;2022-08-21T11:04:12;577.20;;;223.80;;
1086;SDS011;532;49.436;11.100;2022-08-21T11:06:45;672.78;;;257.52;;
1086;SDS011;532;49.436;11.100;2022-08-21T11:09:18;758.72;;;285.80;;
1086;SDS011;532;49.436;11.100;2022-08-21T11:11:52;953.63;;;345.57;;
1086;SDS011;532;49.436;11.100;2022-08-21T11:14:39;981.75;;;353.85;;
1086;SDS011;532;49.436;11.100;2022-08-21T11:17:16;1174.28;;;414.10;;
1086;SDS011;532;49.436;11.100;2022-08-21T11:19:48;297.80;;;137.30;;
1086;SDS011;532;49.436;11.100;2022-08-21T11:22:21;39.72;;;33.92;;
1086;SDS011;532;49.436;11.100;2022-08-21T11:24:55;6.00;;;3.72;;
1086;SDS011;532;49.436;11.100;2022-08-21T11:27:28;324.10;;;134.13;;
1086;SDS011;532;49.436;11.100;2022-08-21T11:30:03;1019.67;;;370.58;;
1086;SDS011;532;49.436;11.100;2022-08-21T11:32:44;1076.25;;;382.50;;
1086;SDS011;532;49.436;11.100;2022-08-21T11:35:35;1106.22;;;391.88;;
1086;SDS011;532;49.436;11.100;2022-08-21T11:38:16;1180.93;;;416.98;;
1086;SDS011;532;49.436;11.100;2022-08-21T11:41:00;1226.10;;;435.85;;
1086;SDS011;532;49.436;11.100;2022-08-21T11:43:34;1175.32;;;411.80;;
1086;SDS011;532;49.436;11.100;2022-08-21T11:46:08;1077.25;;;382.27;;
1086;SDS011;532;49.436;11.100;2022-08-21T11:48:48;1023.80;;;366.37;;
1086;SDS011;532;49.436;11.100;2022-08-21T11:51:29;1016.03;;;363.23;;
1086;SDS011;532;49.436;11.100;2022-08-21T11:54:03;1027.88;;;366.50;;
1086;SDS011;532;49.436;11.100;2022-08-21T11:56:59;1018.78;;;364.58;;
1086;SDS011;532;49.436;11.100;2022-08-21T11:59:31;1054.82;;;375.38;;
1086;SDS011;532;49.436;11.100;2022-08-21T12:02:09;970.65;;;350.02;;
1086;SDS011;532;49.436;11.100;2022-08-21T12:04:42;1012.75;;;362.50;;
1086;SDS011;532;49.436;11.100;2022-08-21T12:07:14;1088.93;;;386.85;;
1086;SDS011;532;49.436;11.100;2022-08-21T12:09:51;1184.22;;;421.73;;
1086;SDS011;532;49.436;11.100;2022-08-21T12:12:24;979.15;;;355.35;;
1086;SDS011;532;49.436;11.100;2022-08-21T12:15:13;1068.70;;;382.60;;
1086;SDS011;532;49.436;11.100;2022-08-21T12:17:52;1081.88;;;386.08;;
1086;SDS011;532;49.436;11.100;2022-08-21T12:23:44;944.30;;;340.73;;
1086;SDS011;532;49.436;11.100;2022-08-21T12:26:18;1079.20;;;382.58;;
1086;SDS011;532;49.436;11.100;2022-08-21T12:28:51;640.17;;;245.23;;
1086;SDS011;532;49.436;11.100;2022-08-21T12:31:49;863.38;;;317.77;;
1086;SDS011;532;49.436;11.100;2022-08-21T12:34:20;1088.75;;;386.67;;
1086;SDS011;532;49.436;11.100;2022-08-21T12:36:53;718.22;;;271.65;;
1086;SDS011;532;49.436;11.100;2022-08-21T12:39:24;935.15;;;339.70;;
1086;SDS011;532;49.436;11.100;2022-08-21T12:41:56;1060.80;;;378.95;;
1086;SDS011;532;49.436;11.100;2022-08-21T12:44:31;1111.10;;;395.13;;
1086;SDS011;532;49.436;11.100;2022-08-21T12:47:06;1163.67;;;411.37;;
1086;SDS011;532;49.436;11.100;2022-08-21T12:49:43;1219.85;;;434.75;;
1086;SDS011;532;49.436;11.100;2022-08-21T12:52:16;1142.00;;;404.13;;
1086;SDS011;532;49.436;11.100;2022-08-21T12:54:48;785.70;;;293.40;;
1086;SDS011;532;49.436;11.100;2022-08-21T12:57:20;1100.90;;;391.57;;
1086;SDS011;532;49.436;11.100;2022-08-21T12:59:55;1099.22;;;394.42;;
1086;SDS011;532;49.436;11.100;2022-08-21T13:02:25;816.58;;;307.45;;
1086;SDS011;532;49.436;11.100;2022-08-21T13:05:02;856.50;;;321.65;;
1086;SDS011;532;49.436;11.100;2022-08-21T13:07:34;809.70;;;307.37;;
1086;SDS011;532;49.436;11.100;2022-08-21T13:10:13;877.55;;;329.05;;
1086;SDS011;532;49.436;11.100;2022-08-21T13:12:47;932.90;;;345.93;;
1086;SDS011;532;49.436;11.100;2022-08-21T13:15:23;608.67;;;235.27;;
1086;SDS011;532;49.436;11.100;2022-08-21T13:17:59;719.95;;;278.15;;
1086;SDS011;532;49.436;11.100;2022-08-21T13:20:30;768.47;;;294.55;;
1086;SDS011;532;49.436;11.100;2022-08-21T13:23:01;822.58;;;311.73;;
1086;SDS011;532;49.436;11.100;2022-08-21T13:25:35;1040.18;;;380.65;;
1086;SDS011;532;49.436;11.100;2022-08-21T13:28:06;938.38;;;348.77;;
1086;SDS011;532;49.436;11.100;2022-08-21T13:30:43;238.93;;;102.68;;
1086;SDS011;532;49.436;11.100;2022-08-21T13:33:14;592.90;;;230.80;;
1086;SDS011;532;49.436;11.100;2022-08-21T13:35:47;497.73;;;195.60;;
1086;SDS011;532;49.436;11.100;2022-08-21T13:38:20;500.70;;;199.75;;
1086;SDS011;532;49.436;11.100;2022-08-21T13:40:55;463.85;;;183.07;;
1086;SDS011;532;49.436;11.100;2022-08-21T13:43:26;496.42;;;195.70;;
1086;SDS011;532;49.436;11.100;2022-08-21T13:45:57;497.93;;;197.13;;
1086;SDS011;532;49.436;11.100;2022-08-21T13:48:26;439.83;;;174.53;;
1086;SDS011;532;49.436;11.100;2022-08-21T13:58:27;188.82;;;110.70;;
1086;SDS011;532;49.436;11.100;2022-08-21T14:05:59;203.70;;;115.50;;
1086;SDS011;532;49.436;11.100;2022-08-21T14:08:31;207.27;;;116.68;;
1086;SDS011;532;49.436;11.100;2022-08-21T14:11:04;234.88;;;124.15;;
1086;SDS011;532;49.436;11.100;2022-08-21T14:13:34;223.38;;;121.03;;
1086;SDS011;532;49.436;11.100;2022-08-21T14:16:18;264.43;;;131.60;;
1086;SDS011;532;49.436;11.100;2022-08-21T14:18:48;263.63;;;130.75;;
1086;SDS011;532;49.436;11.100;2022-08-21T14:21:44;180.88;;;108.95;;
1086;SDS011;532;49.436;11.100;2022-08-21T14:24:23;184.57;;;109.88;;
1086;SDS011;532;49.436;11.100;2022-08-21T14:26:54;222.50;;;121.40;;
1086;SDS011;532;49.436;11.100;2022-08-21T14:29:27;195.25;;;113.40;;
1086;SDS011;532;49.436;11.100;2022-08-21T14:32:08;198.43;;;114.50;;
1086;SDS011;532;49.436;11.100;2022-08-21T14:34:48;158.32;;;101.90;;
1086;SDS011;532;49.436;11.100;2022-08-21T14:37:16;161.77;;;103.43;;
1086;SDS011;532;49.436;11.100;2022-08-21T14:39:44;181.02;;;109.57;;
1086;SDS011;532;49.436;11.100;2022-08-21T14:42:15;187.27;;;111.05;;
1086;SDS011;532;49.436;11.100;2022-08-21T14:44:46;202.02;;;115.43;;
1086;SDS011;532;49.436;11.100;2022-08-21T14:47:15;192.77;;;112.93;;
1086;SDS011;532;49.436;11.100;2022-08-21T14:49:43;145.00;;;98.10;;
1086;SDS011;532;49.436;11.100;2022-08-21T14:52:11;160.47;;;103.00;;
1086;SDS011;532;49.436;11.100;2022-08-21T14:54:39;125.30;;;90.97;;
1086;SDS011;532;49.436;11.100;2022-08-21T14:57:08;125.43;;;90.85;;
1086;SDS011;532;49.436;11.100;2022-08-21T14:59:41;166.98;;;105.00;;
1086;SDS011;532;49.436;11.100;2022-08-21T15:02:09;123.80;;;90.53;;
1086;SDS011;532;49.436;11.100;2022-08-21T15:04:39;142.53;;;96.70;;
1086;SDS011;532;49.436;11.100;2022-08-21T15:07:08;134.60;;;94.38;;
1086;SDS011;532;49.436;11.100;2022-08-21T15:09:35;154.17;;;100.73;;
1086;SDS011;532;49.436;11.100;2022-08-21T15:12:05;196.43;;;113.57;;
1086;SDS011;532;49.436;11.100;2022-08-21T15:14:34;268.17;;;133.25;;
1086;SDS011;532;49.436;11.100;2022-08-21T15:17:06;326.58;;;147.70;;
1086;SDS011;532;49.436;11.100;2022-08-21T15:19:36;267.23;;;132.80;;
1086;SDS011;532;49.436;11.100;2022-08-21T15:22:13;270.40;;;134.05;;
1086;SDS011;532;49.436;11.100;2022-08-21T15:24:55;260.20;;;131.18;;
1086;SDS011;532;49.436;11.100;2022-08-21T15:27:23;287.77;;;138.23;;
1086;SDS011;532;49.436;11.100;2022-08-21T15:29:51;350.60;;;153.30;;
1086;SDS011;532;49.436;11.100;2022-08-21T15:32:21;343.50;;;150.95;;
1086;SDS011;532;49.436;11.100;2022-08-21T15:34:51;226.03;;;122.47;;
1086;SDS011;532;49.436;11.100;2022-08-21T15:37:21;213.98;;;119.22;;
1086;SDS011;532;49.436;11.100;2022-08-21T15:39:52;219.50;;;120.80;;
1086;SDS011;532;49.436;11.100;2022-08-21T15:42:23;194.07;;;113.13;;
1086;SDS011;532;49.436;11.100;2022-08-21T15:44:55;153.60;;;101.37;;
1086;SDS011;532;49.436;11.100;2022-08-21T15:47:28;144.27;;;97.70;;
1086;SDS011;532;49.436;11.100;2022-08-21T15:49:58;98.85;;;80.75;;
1086;SDS011;532;49.436;11.100;2022-08-21T15:52:28;75.57;;;67.43;;
1086;SDS011;532;49.436;11.100;2022-08-21T15:54:56;94.90;;;78.55;;
1086;SDS011;532;49.436;11.100;2022-08-21T15:57:24;92.30;;;77.32;;
1086;SDS011;532;49.436;11.100;2022-08-21T15:59:57;82.15;;;73.07;;
1086;SDS011;532;49.436;11.100;2022-08-21T16:02:37;86.28;;;75.53;;
1086;SDS011;532;49.436;11.100;2022-08-21T16:05:07;79.57;;;71.00;;
1086;SDS011;532;49.436;11.100;2022-08-21T16:07:39;96.75;;;79.85;;
1086;SDS011;532;49.436;11.100;2022-08-21T16:10:08;113.75;;;86.57;;
1086;SDS011;532;49.436;11.100;2022-08-21T16:12:38;119.70;;;89.18;;
1086;SDS011;532;49.436;11.100;2022-08-21T16:15:11;123.07;;;89.90;;
1086;SDS011;532;49.436;11.100;2022-08-21T16:23:35;154.80;;;102.00;;
1086;SDS011;532;49.436;11.100;2022-08-21T16:29:00;126.97;;;92.07;;
1086;SDS011;532;49.436;11.100;2022-08-21T16:31:30;136.40;;;95.20;;
1086;SDS011;532;49.436;11.100;2022-08-21T16:34:00;155.68;;;101.93;;
1086;SDS011;532;49.436;11.100;2022-08-21T16:36:29;156.68;;;102.10;;
1086;SDS011;532;49.436;11.100;2022-08-21T20:09:52;453.05;;;180.88;;
1086;SDS011;532;49.436;11.100;2022-08-21T20:14:52;416.13;;;166.73;;
1086;SDS011;532;49.436;11.100;2022-08-21T20:17:20;356.30;;;153.05;;
1086;SDS011;532;49.436;11.100;2022-08-21T20:19:50;394.95;;;161.40;;
1086;SDS011;532;49.436;11.100;2022-08-21T20:22:22;282.17;;;134.75;;
1086;SDS011;532;49.436;11.100;2022-08-21T20:24:52;267.70;;;131.13;;
1086;SDS011;532;49.436;11.100;2022-08-21T20:27:22;340.77;;;149.15;;
1086;SDS011;532;49.436;11.100;2022-08-21T20:29:52;222.10;;;119.68;;
1086;SDS011;532;49.436;11.100;2022-08-21T20:32:21;260.45;;;129.88;;
1086;SDS011;532;49.436;11.100;2022-08-21T20:34:49;291.38;;;137.30;;
1086;SDS011;532;49.436;11.100;2022-08-21T20:37:22;209.98;;;115.95;;
1086;SDS011;532;49.436;11.100;2022-08-21T20:40:03;239.02;;;124.35;;
1086;SDS011;532;49.436;11.100;2022-08-21T20:42:38;279.58;;;134.50;;
1086;SDS011;532;49.436;11.100;2022-08-21T20:45:30;270.30;;;131.75;;
1086;SDS011;532;49.436;11.100;2022-08-21T20:48:00;280.27;;;134.57;;
